Airfield :
LOGIN :

Register | Disclaimer

   EN    FR    IT 

 










Legend :    VFR   Marginal VFR   IFR   Intensive IFR   Very Intensive IFR
Visi :
Ceiling :
>= 8 km
>= 3000ft
5 to 8 km
1000 to 3000 ft
1500m to 5 km
500 to 1000 ft
800 to 1500m
200 to 500 ft
< 800m
< 200 ft
Symbols :   Thunderstorms  Fog  Heavy snow  Heavy precipitations  Wind > 20 kt
SIGMETs :     Misc.  Thunderstorms  Icing  Turbulence  Mountain Waves  Volcanic Ashes






- Airport Elevation : 375 ft
- IATA code : MST


EHBK - Maastricht Aachen

CURRENT METAR :
  • 241725Z AUTO 17005KT 9999 NSC 01/M02 Q0999 NOSIG

EXPIRED METARs :
  • 241655Z AUTO 18007KT 9999 NSC 01/M02 Q0999 NOSIG
  • 241625Z AUTO 18007KT 150V220 9999 NSC 01/M02 Q1000 NOSIG
  • 241555Z AUTO 19008KT 9999 NSC 01/M01 Q1000 NOSIG
  • 241525Z AUTO 18007KT 9999 BKN029 01/M01 Q1000 NOSIG
  • 241455Z AUTO 21008KT 9999 SCT026 BKN030 02/M01 Q1000 NOSIG

TAF TAF EHBK
Valid from the 24 at 18:00 until the 26 at 00:00 UTC


241723Z 2418/2524 16005KT 9999 BKN020
TEMPO 2421/2511 2000 -SN BKN005
PROB30
TEMPO 2422/2504 0800 SN BKN002
BECMG 2519/2522 24010KT



MET'MAP, your aeronautical weather chart ! - Copyright ORBIFLY December 2007 - Disclaimer

ORBIFLY MET'MAP TEAM :

Programming & Development : Alexandra Zaïnal
Concept & original design : Baudouin d'Aumeries
Assistance for programming : Marc-Olivier Méhu
Technical & hardware support : Manuel Goepfert

Contact : metmap@orbifly.com




SOURCES & CREDITS :

   NOAA